sensor_id;sensor_type;location;lat;lon;timestamp;temperature;humidity
38458;DHT22;24239;48.058;10.486;2023-04-16T00:01:51;4.30;99.90
38458;DHT22;24239;48.058;10.486;2023-04-16T00:04:16;4.20;99.90
38458;DHT22;24239;48.058;10.486;2023-04-16T00:06:42;4.20;99.90
38458;DHT22;24239;48.058;10.486;2023-04-16T00:09:08;4.30;99.90
38458;DHT22;24239;48.058;10.486;2023-04-16T00:11:36;4.10;99.90
38458;DHT22;24239;48.058;10.486;2023-04-16T00:14:01;4.20;99.90
38458;DHT22;24239;48.058;10.486;2023-04-16T00:16:27;4.20;99.90
38458;DHT22;24239;48.058;10.486;2023-04-16T00:18:53;4.20;99.90
38458;DHT22;24239;48.058;10.486;2023-04-16T00:21:18;4.20;99.90
38458;DHT22;24239;48.058;10.486;2023-04-16T00:23:47;4.20;99.90
38458;DHT22;24239;48.058;10.486;2023-04-16T00:26:15;4.20;99.90
38458;DHT22;24239;48.058;10.486;2023-04-16T00:28:41;4.20;99.90
38458;DHT22;24239;48.058;10.486;2023-04-16T00:31:07;4.20;99.90
38458;DHT22;24239;48.058;10.486;2023-04-16T00:33:32;4.30;99.90
38458;DHT22;24239;48.058;10.486;2023-04-16T00:35:59;4.20;99.90
38458;DHT22;24239;48.058;10.486;2023-04-16T00:38:24;4.20;99.90
38458;DHT22;24239;48.058;10.486;2023-04-16T00:40:54;4.20;99.90
38458;DHT22;24239;48.058;10.486;2023-04-16T00:43:23;4.10;99.90
38458;DHT22;24239;48.058;10.486;2023-04-16T00:45:50;4.20;99.90
38458;DHT22;24239;48.058;10.486;2023-04-16T00:48:16;4.10;99.90
38458;DHT22;24239;48.058;10.486;2023-04-16T00:50:42;4.10;99.90
38458;DHT22;24239;48.058;10.486;2023-04-16T00:53:08;4.20;99.90
38458;DHT22;24239;48.058;10.486;2023-04-16T00:55:34;4.10;99.90
38458;DHT22;24239;48.058;10.486;2023-04-16T00:57:59;4.10;99.90
38458;DHT22;24239;48.058;10.486;2023-04-16T01:00:28;4.10;99.90
38458;DHT22;24239;48.058;10.486;2023-04-16T01:02:54;4.20;99.90
38458;DHT22;24239;48.058;10.486;2023-04-16T01:05:20;4.10;99.90
38458;DHT22;24239;48.058;10.486;2023-04-16T01:07:45;4.10;99.90
38458;DHT22;24239;48.058;10.486;2023-04-16T01:10:11;4.20;99.90
38458;DHT22;24239;48.058;10.486;2023-04-16T01:12:37;4.20;99.90
38458;DHT22;24239;48.058;10.486;2023-04-16T01:15:02;4.20;99.90
38458;DHT22;24239;48.058;10.486;2023-04-16T01:17:28;4.20;99.90
38458;DHT22;24239;48.058;10.486;2023-04-16T01:19:57;4.20;99.90
38458;DHT22;24239;48.058;10.486;2023-04-16T01:22:23;4.40;99.90
38458;DHT22;24239;48.058;10.486;2023-04-16T01:24:48;4.30;99.90
38458;DHT22;24239;48.058;10.486;2023-04-16T01:27:14;4.20;99.90
38458;DHT22;24239;48.058;10.486;2023-04-16T01:29:40;4.10;99.90
38458;DHT22;24239;48.058;10.486;2023-04-16T01:32:08;4.10;99.90
38458;DHT22;24239;48.058;10.486;2023-04-16T01:34:34;4.20;99.90
38458;DHT22;24239;48.058;10.486;2023-04-16T01:37:00;4.10;99.90
38458;DHT22;24239;48.058;10.486;2023-04-16T01:39:26;4.10;99.90
38458;DHT22;24239;48.058;10.486;2023-04-16T01:41:51;4.20;99.90
38458;DHT22;24239;48.058;10.486;2023-04-16T01:44:19;4.20;99.90
38458;DHT22;24239;48.058;10.486;2023-04-16T01:46:46;4.20;99.90
38458;DHT22;24239;48.058;10.486;2023-04-16T01:49:11;4.30;99.90
38458;DHT22;24239;48.058;10.486;2023-04-16T01:51:37;4.30;99.90
38458;DHT22;24239;48.058;10.486;2023-04-16T01:54:03;4.20;99.90
38458;DHT22;24239;48.058;10.486;2023-04-16T01:56:28;4.30;99.90
38458;DHT22;24239;48.058;10.486;2023-04-16T01:58:54;4.20;99.90
38458;DHT22;24239;48.058;10.486;2023-04-16T02:01:20;4.30;99.90
38458;DHT22;24239;48.058;10.486;2023-04-16T02:03:46;4.30;99.90
38458;DHT22;24239;48.058;10.486;2023-04-16T02:06:11;4.30;99.90
38458;DHT22;24239;48.058;10.486;2023-04-16T02:08:37;4.30;99.90
38458;DHT22;24239;48.058;10.486;2023-04-16T02:11:03;4.30;99.90
38458;DHT22;24239;48.058;10.486;2023-04-16T02:13:29;4.30;99.90
38458;DHT22;24239;48.058;10.486;2023-04-16T02:15:55;4.30;99.90
38458;DHT22;24239;48.058;10.486;2023-04-16T02:18:20;4.40;99.90
38458;DHT22;24239;48.058;10.486;2023-04-16T02:20:46;4.30;99.90
38458;DHT22;24239;48.058;10.486;2023-04-16T02:23:13;4.40;99.90
38458;DHT22;24239;48.058;10.486;2023-04-16T02:25:40;4.30;99.90
38458;DHT22;24239;48.058;10.486;2023-04-16T02:28:10;4.40;99.90
38458;DHT22;24239;48.058;10.486;2023-04-16T02:30:36;4.30;99.90
38458;DHT22;24239;48.058;10.486;2023-04-16T02:33:02;4.40;99.90
38458;DHT22;24239;48.058;10.486;2023-04-16T02:35:30;4.40;99.90
38458;DHT22;24239;48.058;10.486;2023-04-16T02:37:56;4.40;99.90
38458;DHT22;24239;48.058;10.486;2023-04-16T02:40:21;4.40;99.90
38458;DHT22;24239;48.058;10.486;2023-04-16T02:42:47;4.40;99.90
38458;DHT22;24239;48.058;10.486;2023-04-16T02:45:13;4.40;99.90
38458;DHT22;24239;48.058;10.486;2023-04-16T02:47:39;4.40;99.90
38458;DHT22;24239;48.058;10.486;2023-04-16T02:50:05;4.40;99.90
38458;DHT22;24239;48.058;10.486;2023-04-16T02:52:31;4.50;99.90
38458;DHT22;24239;48.058;10.486;2023-04-16T02:54:58;4.30;99.90
38458;DHT22;24239;48.058;10.486;2023-04-16T02:57:23;4.40;99.90
38458;DHT22;24239;48.058;10.486;2023-04-16T02:59:49;4.30;99.90
38458;DHT22;24239;48.058;10.486;2023-04-16T03:02:15;4.40;99.90
38458;DHT22;24239;48.058;10.486;2023-04-16T03:04:41;4.50;99.90
38458;DHT22;24239;48.058;10.486;2023-04-16T03:07:06;4.50;99.90
38458;DHT22;24239;48.058;10.486;2023-04-16T03:09:34;4.50;99.90
38458;DHT22;24239;48.058;10.486;2023-04-16T03:12:00;4.40;99.90
38458;DHT22;24239;48.058;10.486;2023-04-16T03:14:26;4.50;99.90
38458;DHT22;24239;48.058;10.486;2023-04-16T03:16:52;4.50;99.90
38458;DHT22;24239;48.058;10.486;2023-04-16T03:19:18;4.50;99.90
38458;DHT22;24239;48.058;10.486;2023-04-16T03:21:44;4.50;99.90
38458;DHT22;24239;48.058;10.486;2023-04-16T03:24:10;4.50;99.90
38458;DHT22;24239;48.058;10.486;2023-04-16T03:26:35;4.40;99.90
38458;DHT22;24239;48.058;10.486;2023-04-16T03:29:01;4.50;99.90
38458;DHT22;24239;48.058;10.486;2023-04-16T03:31:27;4.50;99.90
38458;DHT22;24239;48.058;10.486;2023-04-16T03:33:52;4.50;99.90
38458;DHT22;24239;48.058;10.486;2023-04-16T03:36:18;4.60;99.90
38458;DHT22;24239;48.058;10.486;2023-04-16T03:38:44;4.50;99.90
38458;DHT22;24239;48.058;10.486;2023-04-16T03:41:10;4.50;99.90
38458;DHT22;24239;48.058;10.486;2023-04-16T03:43:35;4.50;99.90
38458;DHT22;24239;48.058;10.486;2023-04-16T03:46:01;4.40;99.90
38458;DHT22;24239;48.058;10.486;2023-04-16T03:48:27;4.40;99.90
38458;DHT22;24239;48.058;10.486;2023-04-16T03:50:52;4.50;99.90
38458;DHT22;24239;48.058;10.486;2023-04-16T03:53:18;4.50;99.90
38458;DHT22;24239;48.058;10.486;2023-04-16T03:55:44;4.40;99.90
38458;DHT22;24239;48.058;10.486;2023-04-16T03:58:10;4.50;99.90
38458;DHT22;24239;48.058;10.486;2023-04-16T04:00:35;4.60;99.90
38458;DHT22;24239;48.058;10.486;2023-04-16T04:03:01;4.60;99.90
38458;DHT22;24239;48.058;10.486;2023-04-16T04:05:26;4.60;99.90
38458;DHT22;24239;48.058;10.486;2023-04-16T04:07:52;4.50;99.90
38458;DHT22;24239;48.058;10.486;2023-04-16T04:10:20;4.60;99.90
38458;DHT22;24239;48.058;10.486;2023-04-16T04:12:46;4.50;99.90
38458;DHT22;24239;48.058;10.486;2023-04-16T04:15:14;4.60;99.90
38458;DHT22;24239;48.058;10.486;2023-04-16T04:17:40;4.60;99.90
38458;DHT22;24239;48.058;10.486;2023-04-16T04:20:06;4.60;99.90
38458;DHT22;24239;48.058;10.486;2023-04-16T04:22:32;4.50;99.90
38458;DHT22;24239;48.058;10.486;2023-04-16T04:24:57;4.50;99.90
38458;DHT22;24239;48.058;10.486;2023-04-16T04:27:23;4.50;99.90
38458;DHT22;24239;48.058;10.486;2023-04-16T04:29:49;4.50;99.90
38458;DHT22;24239;48.058;10.486;2023-04-16T04:32:15;4.60;99.90
38458;DHT22;24239;48.058;10.486;2023-04-16T04:34:43;4.60;99.90
38458;DHT22;24239;48.058;10.486;2023-04-16T04:37:08;4.60;99.90
38458;DHT22;24239;48.058;10.486;2023-04-16T04:39:34;4.60;99.90
38458;DHT22;24239;48.058;10.486;2023-04-16T04:42:00;4.60;99.90
38458;DHT22;24239;48.058;10.486;2023-04-16T04:44:27;4.60;99.90
38458;DHT22;24239;48.058;10.486;2023-04-16T04:46:53;4.60;99.90
38458;DHT22;24239;48.058;10.486;2023-04-16T04:49:18;4.50;99.90
38458;DHT22;24239;48.058;10.486;2023-04-16T04:51:44;4.60;99.90
38458;DHT22;24239;48.058;10.486;2023-04-16T04:54:10;4.70;99.90
38458;DHT22;24239;48.058;10.486;2023-04-16T04:56:38;4.70;99.90
38458;DHT22;24239;48.058;10.486;2023-04-16T04:59:09;4.80;99.90
38458;DHT22;24239;48.058;10.486;2023-04-16T05:01:35;4.70;99.90
38458;DHT22;24239;48.058;10.486;2023-04-16T05:04:01;4.80;99.90
38458;DHT22;24239;48.058;10.486;2023-04-16T05:06:27;4.80;99.90
38458;DHT22;24239;48.058;10.486;2023-04-16T05:08:52;4.90;99.90
38458;DHT22;24239;48.058;10.486;2023-04-16T05:11:18;4.90;99.90
38458;DHT22;24239;48.058;10.486;2023-04-16T05:13:44;5.00;99.90
38458;DHT22;24239;48.058;10.486;2023-04-16T05:16:09;4.90;99.90
38458;DHT22;24239;48.058;10.486;2023-04-16T05:18:35;5.00;99.90
38458;DHT22;24239;48.058;10.486;2023-04-16T05:21:01;4.90;99.90
38458;DHT22;24239;48.058;10.486;2023-04-16T05:23:26;4.90;99.90
38458;DHT22;24239;48.058;10.486;2023-04-16T05:25:52;5.00;99.90
38458;DHT22;24239;48.058;10.486;2023-04-16T05:28:18;5.00;99.90
38458;DHT22;24239;48.058;10.486;2023-04-16T05:30:43;5.10;99.90
38458;DHT22;24239;48.058;10.486;2023-04-16T05:33:09;5.10;99.90
38458;DHT22;24239;48.058;10.486;2023-04-16T05:35:35;5.10;99.90
38458;DHT22;24239;48.058;10.486;2023-04-16T05:38:00;5.10;99.90
38458;DHT22;24239;48.058;10.486;2023-04-16T05:40:26;5.10;99.90
38458;DHT22;24239;48.058;10.486;2023-04-16T05:42:52;5.10;99.90
38458;DHT22;24239;48.058;10.486;2023-04-16T05:45:18;5.20;99.90
38458;DHT22;24239;48.058;10.486;2023-04-16T05:47:43;5.20;99.90
38458;DHT22;24239;48.058;10.486;2023-04-16T05:50:11;5.30;99.90
38458;DHT22;24239;48.058;10.486;2023-04-16T05:52:37;5.20;99.90
38458;DHT22;24239;48.058;10.486;2023-04-16T05:55:03;5.30;99.90
38458;DHT22;24239;48.058;10.486;2023-04-16T05:57:28;5.40;99.90
38458;DHT22;24239;48.058;10.486;2023-04-16T05:59:54;5.30;99.90
38458;DHT22;24239;48.058;10.486;2023-04-16T06:02:20;5.30;99.90
38458;DHT22;24239;48.058;10.486;2023-04-16T06:04:45;5.40;99.90
38458;DHT22;24239;48.058;10.486;2023-04-16T06:07:11;5.50;99.90
38458;DHT22;24239;48.058;10.486;2023-04-16T06:09:37;5.50;99.90
38458;DHT22;24239;48.058;10.486;2023-04-16T06:12:02;5.60;99.90
38458;DHT22;24239;48.058;10.486;2023-04-16T06:14:28;5.60;99.90
38458;DHT22;24239;48.058;10.486;2023-04-16T06:16:54;5.70;99.90
38458;DHT22;24239;48.058;10.486;2023-04-16T06:19:20;5.60;99.90
38458;DHT22;24239;48.058;10.486;2023-04-16T06:21:46;5.70;99.90
38458;DHT22;24239;48.058;10.486;2023-04-16T06:24:12;5.80;99.90
38458;DHT22;24239;48.058;10.486;2023-04-16T06:26:37;5.70;99.90
38458;DHT22;24239;48.058;10.486;2023-04-16T06:29:03;5.70;99.90
38458;DHT22;24239;48.058;10.486;2023-04-16T06:31:29;5.80;99.90
38458;DHT22;24239;48.058;10.486;2023-04-16T06:33:55;5.70;99.90
38458;DHT22;24239;48.058;10.486;2023-04-16T06:36:21;5.70;99.90
38458;DHT22;24239;48.058;10.486;2023-04-16T06:38:46;5.80;99.90
38458;DHT22;24239;48.058;10.486;2023-04-16T06:41:15;5.80;99.90
38458;DHT22;24239;48.058;10.486;2023-04-16T06:43:41;5.70;99.90
38458;DHT22;24239;48.058;10.486;2023-04-16T06:46:06;5.80;99.90
38458;DHT22;24239;48.058;10.486;2023-04-16T06:48:32;5.80;99.90
38458;DHT22;24239;48.058;10.486;2023-04-16T06:50:57;5.70;99.90
38458;DHT22;24239;48.058;10.486;2023-04-16T06:53:23;5.80;99.90
38458;DHT22;24239;48.058;10.486;2023-04-16T06:55:49;5.70;99.90
38458;DHT22;24239;48.058;10.486;2023-04-16T06:58:14;5.70;99.90
38458;DHT22;24239;48.058;10.486;2023-04-16T07:00:40;5.70;99.90
38458;DHT22;24239;48.058;10.486;2023-04-16T07:03:06;5.80;99.90
38458;DHT22;24239;48.058;10.486;2023-04-16T07:05:31;5.90;99.90
38458;DHT22;24239;48.058;10.486;2023-04-16T07:07:57;5.90;99.90
38458;DHT22;24239;48.058;10.486;2023-04-16T07:10:23;5.90;99.90
38458;DHT22;24239;48.058;10.486;2023-04-16T07:12:49;5.80;99.90
38458;DHT22;24239;48.058;10.486;2023-04-16T07:15:15;5.80;99.90
38458;DHT22;24239;48.058;10.486;2023-04-16T07:17:41;5.70;99.90
38458;DHT22;24239;48.058;10.486;2023-04-16T07:20:06;5.80;99.90
38458;DHT22;24239;48.058;10.486;2023-04-16T07:22:33;5.70;99.90
38458;DHT22;24239;48.058;10.486;2023-04-16T07:24:58;5.70;99.90
38458;DHT22;24239;48.058;10.486;2023-04-16T07:27:24;5.70;99.90
38458;DHT22;24239;48.058;10.486;2023-04-16T07:29:50;5.80;99.90
38458;DHT22;24239;48.058;10.486;2023-04-16T07:32:15;5.80;99.90
38458;DHT22;24239;48.058;10.486;2023-04-16T07:34:41;6.00;99.90
38458;DHT22;24239;48.058;10.486;2023-04-16T07:37:07;6.10;99.90
38458;DHT22;24239;48.058;10.486;2023-04-16T07:39:33;6.10;99.90
38458;DHT22;24239;48.058;10.486;2023-04-16T07:41:59;6.10;99.90
38458;DHT22;24239;48.058;10.486;2023-04-16T07:44:25;6.20;99.90
38458;DHT22;24239;48.058;10.486;2023-04-16T07:46:51;6.10;99.90
38458;DHT22;24239;48.058;10.486;2023-04-16T07:49:19;6.20;99.90
38458;DHT22;24239;48.058;10.486;2023-04-16T07:51:45;6.30;99.90
38458;DHT22;24239;48.058;10.486;2023-04-16T07:54:11;6.40;99.90
38458;DHT22;24239;48.058;10.486;2023-04-16T07:56:36;6.50;99.90
38458;DHT22;24239;48.058;10.486;2023-04-16T07:59:02;6.40;99.90
38458;DHT22;24239;48.058;10.486;2023-04-16T08:01:27;6.60;99.90
38458;DHT22;24239;48.058;10.486;2023-04-16T08:03:53;6.50;99.90
38458;DHT22;24239;48.058;10.486;2023-04-16T08:06:19;6.60;99.90
38458;DHT22;24239;48.058;10.486;2023-04-16T08:08:44;6.60;99.90
38458;DHT22;24239;48.058;10.486;2023-04-16T08:11:10;6.40;99.90
38458;DHT22;24239;48.058;10.486;2023-04-16T08:13:35;6.40;99.90
38458;DHT22;24239;48.058;10.486;2023-04-16T08:16:01;6.40;99.90
38458;DHT22;24239;48.058;10.486;2023-04-16T08:18:27;6.50;99.90
38458;DHT22;24239;48.058;10.486;2023-04-16T08:20:53;6.30;99.90
38458;DHT22;24239;48.058;10.486;2023-04-16T08:23:19;6.30;99.90
38458;DHT22;24239;48.058;10.486;2023-04-16T08:25:46;6.40;99.90
38458;DHT22;24239;48.058;10.486;2023-04-16T08:28:11;6.60;99.90
38458;DHT22;24239;48.058;10.486;2023-04-16T08:30:37;6.70;99.90
38458;DHT22;24239;48.058;10.486;2023-04-16T08:33:03;6.80;99.90
38458;DHT22;24239;48.058;10.486;2023-04-16T08:35:29;6.80;99.90
38458;DHT22;24239;48.058;10.486;2023-04-16T08:37:55;6.70;99.90
38458;DHT22;24239;48.058;10.486;2023-04-16T08:40:23;6.70;99.90
38458;DHT22;24239;48.058;10.486;2023-04-16T08:42:53;6.80;99.90
38458;DHT22;24239;48.058;10.486;2023-04-16T08:45:20;6.80;99.90
38458;DHT22;24239;48.058;10.486;2023-04-16T08:47:47;6.90;99.90
38458;DHT22;24239;48.058;10.486;2023-04-16T08:50:13;7.00;99.90
38458;DHT22;24239;48.058;10.486;2023-04-16T08:52:42;7.10;99.90
38458;DHT22;24239;48.058;10.486;2023-04-16T08:55:12;7.20;99.90
38458;DHT22;24239;48.058;10.486;2023-04-16T08:57:43;7.20;99.90
38458;DHT22;24239;48.058;10.486;2023-04-16T09:00:11;7.10;99.90
38458;DHT22;24239;48.058;10.486;2023-04-16T09:02:37;6.80;99.90
38458;DHT22;24239;48.058;10.486;2023-04-16T09:05:04;6.90;99.90
38458;DHT22;24239;48.058;10.486;2023-04-16T09:07:31;7.00;99.90
38458;DHT22;24239;48.058;10.486;2023-04-16T09:09:58;7.00;99.90
38458;DHT22;24239;48.058;10.486;2023-04-16T09:12:24;6.90;99.90
38458;DHT22;24239;48.058;10.486;2023-04-16T09:14:50;6.90;99.90
38458;DHT22;24239;48.058;10.486;2023-04-16T09:17:16;6.90;99.90
38458;DHT22;24239;48.058;10.486;2023-04-16T09:19:42;6.70;99.90
38458;DHT22;24239;48.058;10.486;2023-04-16T09:22:08;7.00;99.90
38458;DHT22;24239;48.058;10.486;2023-04-16T09:24:36;6.90;99.90
38458;DHT22;24239;48.058;10.486;2023-04-16T09:27:06;7.00;99.90
38458;DHT22;24239;48.058;10.486;2023-04-16T09:29:33;7.00;99.90
38458;DHT22;24239;48.058;10.486;2023-04-16T09:32:03;7.10;99.90
38458;DHT22;24239;48.058;10.486;2023-04-16T09:34:30;7.10;99.90
38458;DHT22;24239;48.058;10.486;2023-04-16T09:37:01;7.20;99.90
38458;DHT22;24239;48.058;10.486;2023-04-16T09:39:41;7.20;99.90
38458;DHT22;24239;48.058;10.486;2023-04-16T09:42:07;7.30;99.90
38458;DHT22;24239;48.058;10.486;2023-04-16T09:44:36;7.30;99.90
38458;DHT22;24239;48.058;10.486;2023-04-16T09:47:06;7.60;99.90
38458;DHT22;24239;48.058;10.486;2023-04-16T09:49:50;7.60;99.90
38458;DHT22;24239;48.058;10.486;2023-04-16T09:52:17;7.80;99.90
38458;DHT22;24239;48.058;10.486;2023-04-16T09:57:12;7.90;99.90
38458;DHT22;24239;48.058;10.486;2023-04-16T09:59:40;7.90;99.90
38458;DHT22;24239;48.058;10.486;2023-04-16T10:02:06;7.90;99.90
38458;DHT22;24239;48.058;10.486;2023-04-16T10:04:48;8.00;99.90
38458;DHT22;24239;48.058;10.486;2023-04-16T10:07:14;8.10;99.90
38458;DHT22;24239;48.058;10.486;2023-04-16T10:09:40;8.00;99.90
38458;DHT22;24239;48.058;10.486;2023-04-16T10:12:06;7.90;99.90
38458;DHT22;24239;48.058;10.486;2023-04-16T10:14:32;7.70;99.90
38458;DHT22;24239;48.058;10.486;2023-04-16T10:16:58;7.50;99.90
38458;DHT22;24239;48.058;10.486;2023-04-16T10:19:27;7.40;99.90
38458;DHT22;24239;48.058;10.486;2023-04-16T10:21:53;7.20;99.90
38458;DHT22;24239;48.058;10.486;2023-04-16T10:24:20;7.10;99.90
38458;DHT22;24239;48.058;10.486;2023-04-16T10:26:46;7.10;99.90
38458;DHT22;24239;48.058;10.486;2023-04-16T10:29:13;7.10;99.90
38458;DHT22;24239;48.058;10.486;2023-04-16T10:31:39;7.10;99.90
38458;DHT22;24239;48.058;10.486;2023-04-16T10:34:06;7.00;99.90
38458;DHT22;24239;48.058;10.486;2023-04-16T10:36:34;7.00;99.90
38458;DHT22;24239;48.058;10.486;2023-04-16T10:39:00;7.10;99.90
38458;DHT22;24239;48.058;10.486;2023-04-16T10:41:26;7.10;99.90
38458;DHT22;24239;48.058;10.486;2023-04-16T10:43:52;7.00;99.90
38458;DHT22;24239;48.058;10.486;2023-04-16T10:46:31;7.30;99.90
38458;DHT22;24239;48.058;10.486;2023-04-16T10:49:00;7.30;99.90
38458;DHT22;24239;48.058;10.486;2023-04-16T10:51:27;7.60;99.90
38458;DHT22;24239;48.058;10.486;2023-04-16T10:53:54;7.40;99.90
38458;DHT22;24239;48.058;10.486;2023-04-16T10:56:24;7.50;99.90
38458;DHT22;24239;48.058;10.486;2023-04-16T10:58:51;7.50;99.90
38458;DHT22;24239;48.058;10.486;2023-04-16T11:01:17;7.50;99.90
38458;DHT22;24239;48.058;10.486;2023-04-16T11:03:47;7.40;99.90
38458;DHT22;24239;48.058;10.486;2023-04-16T11:06:13;7.40;99.90
38458;DHT22;24239;48.058;10.486;2023-04-16T11:08:41;7.50;99.90
38458;DHT22;24239;48.058;10.486;2023-04-16T11:11:08;7.40;99.90
38458;DHT22;24239;48.058;10.486;2023-04-16T11:13:35;7.20;99.90
38458;DHT22;24239;48.058;10.486;2023-04-16T11:16:01;7.20;99.90
38458;DHT22;24239;48.058;10.486;2023-04-16T11:18:27;7.30;99.90
38458;DHT22;24239;48.058;10.486;2023-04-16T11:20:52;7.40;99.90
38458;DHT22;24239;48.058;10.486;2023-04-16T11:23:18;7.30;99.90
38458;DHT22;24239;48.058;10.486;2023-04-16T11:25:44;7.40;99.90
38458;DHT22;24239;48.058;10.486;2023-04-16T11:28:10;7.40;99.90
38458;DHT22;24239;48.058;10.486;2023-04-16T11:30:37;7.40;99.90
38458;DHT22;24239;48.058;10.486;2023-04-16T11:33:03;7.60;99.90
38458;DHT22;24239;48.058;10.486;2023-04-16T11:35:29;7.60;99.90
38458;DHT22;24239;48.058;10.486;2023-04-16T11:37:55;7.70;99.90
38458;DHT22;24239;48.058;10.486;2023-04-16T11:40:21;7.60;99.90
38458;DHT22;24239;48.058;10.486;2023-04-16T11:42:49;7.60;99.90
38458;DHT22;24239;48.058;10.486;2023-04-16T11:45:15;7.60;99.90
38458;DHT22;24239;48.058;10.486;2023-04-16T11:47:48;7.80;99.90
38458;DHT22;24239;48.058;10.486;2023-04-16T11:52:46;8.00;99.90
38458;DHT22;24239;48.058;10.486;2023-04-16T11:55:14;8.30;99.90
38458;DHT22;24239;48.058;10.486;2023-04-16T11:57:39;8.20;99.90
38458;DHT22;24239;48.058;10.486;2023-04-16T12:00:05;8.20;99.90
38458;DHT22;24239;48.058;10.486;2023-04-16T12:02:38;8.20;99.90
38458;DHT22;24239;48.058;10.486;2023-04-16T12:05:05;8.20;99.90
38458;DHT22;24239;48.058;10.486;2023-04-16T12:07:44;8.30;99.90
38458;DHT22;24239;48.058;10.486;2023-04-16T12:10:11;8.20;99.90
38458;DHT22;24239;48.058;10.486;2023-04-16T12:12:36;8.20;99.90
38458;DHT22;24239;48.058;10.486;2023-04-16T12:15:02;8.20;99.90
38458;DHT22;24239;48.058;10.486;2023-04-16T12:17:29;8.30;99.90
38458;DHT22;24239;48.058;10.486;2023-04-16T12:19:56;8.40;99.90
38458;DHT22;24239;48.058;10.486;2023-04-16T12:22:27;8.60;99.90
38458;DHT22;24239;48.058;10.486;2023-04-16T12:25:03;8.60;99.90
38458;DHT22;24239;48.058;10.486;2023-04-16T12:27:44;8.50;99.90
38458;DHT22;24239;48.058;10.486;2023-04-16T12:30:13;8.40;99.90
38458;DHT22;24239;48.058;10.486;2023-04-16T12:32:43;8.50;99.90
38458;DHT22;24239;48.058;10.486;2023-04-16T12:35:10;8.40;99.90
38458;DHT22;24239;48.058;10.486;2023-04-16T12:37:36;8.40;99.90
38458;DHT22;24239;48.058;10.486;2023-04-16T12:40:02;8.30;99.90
38458;DHT22;24239;48.058;10.486;2023-04-16T12:42:29;8.10;99.90
38458;DHT22;24239;48.058;10.486;2023-04-16T12:45:03;8.10;99.90
38458;DHT22;24239;48.058;10.486;2023-04-16T12:47:30;8.10;99.90
38458;DHT22;24239;48.058;10.486;2023-04-16T12:49:58;8.00;99.90
38458;DHT22;24239;48.058;10.486;2023-04-16T12:52:24;8.00;99.90
38458;DHT22;24239;48.058;10.486;2023-04-16T12:54:50;8.00;99.90
38458;DHT22;24239;48.058;10.486;2023-04-16T12:57:16;8.00;99.90
38458;DHT22;24239;48.058;10.486;2023-04-16T12:59:42;8.10;99.90
38458;DHT22;24239;48.058;10.486;2023-04-16T13:02:07;8.10;99.90
38458;DHT22;24239;48.058;10.486;2023-04-16T13:04:33;8.10;99.90
38458;DHT22;24239;48.058;10.486;2023-04-16T13:06:59;8.10;99.90
38458;DHT22;24239;48.058;10.486;2023-04-16T13:09:24;8.00;99.90
38458;DHT22;24239;48.058;10.486;2023-04-16T13:11:51;8.10;99.90
38458;DHT22;24239;48.058;10.486;2023-04-16T13:14:17;8.00;99.90
38458;DHT22;24239;48.058;10.486;2023-04-16T13:16:43;8.00;99.90
38458;DHT22;24239;48.058;10.486;2023-04-16T13:19:09;8.00;99.90
38458;DHT22;24239;48.058;10.486;2023-04-16T13:21:34;8.00;99.90
38458;DHT22;24239;48.058;10.486;2023-04-16T13:24:00;8.00;99.90
38458;DHT22;24239;48.058;10.486;2023-04-16T13:26:26;8.00;99.90
38458;DHT22;24239;48.058;10.486;2023-04-16T13:28:51;8.00;99.90
38458;DHT22;24239;48.058;10.486;2023-04-16T13:31:17;8.00;99.90
38458;DHT22;24239;48.058;10.486;2023-04-16T13:33:48;8.10;99.90
38458;DHT22;24239;48.058;10.486;2023-04-16T13:36:14;7.90;99.90
38458;DHT22;24239;48.058;10.486;2023-04-16T13:38:40;7.90;99.90
38458;DHT22;24239;48.058;10.486;2023-04-16T13:41:06;7.80;99.90
38458;DHT22;24239;48.058;10.486;2023-04-16T13:43:32;7.90;99.90
38458;DHT22;24239;48.058;10.486;2023-04-16T13:45:57;7.90;99.90
38458;DHT22;24239;48.058;10.486;2023-04-16T13:48:23;7.90;99.90
38458;DHT22;24239;48.058;10.486;2023-04-16T13:50:49;7.90;99.90
38458;DHT22;24239;48.058;10.486;2023-04-16T13:53:15;7.90;99.90
38458;DHT22;24239;48.058;10.486;2023-04-16T13:55:41;8.00;99.90
38458;DHT22;24239;48.058;10.486;2023-04-16T13:58:07;7.90;99.90
38458;DHT22;24239;48.058;10.486;2023-04-16T14:00:32;8.00;99.90
38458;DHT22;24239;48.058;10.486;2023-04-16T14:02:58;8.00;99.90
38458;DHT22;24239;48.058;10.486;2023-04-16T14:05:24;8.10;99.90
38458;DHT22;24239;48.058;10.486;2023-04-16T14:07:49;7.80;99.90
38458;DHT22;24239;48.058;10.486;2023-04-16T14:10:15;7.90;99.90
38458;DHT22;24239;48.058;10.486;2023-04-16T14:12:41;7.80;99.90
38458;DHT22;24239;48.058;10.486;2023-04-16T14:15:07;7.80;99.90
38458;DHT22;24239;48.058;10.486;2023-04-16T14:17:41;7.70;99.90
38458;DHT22;24239;48.058;10.486;2023-04-16T14:20:07;7.70;99.90
38458;DHT22;24239;48.058;10.486;2023-04-16T14:22:33;7.60;99.90
38458;DHT22;24239;48.058;10.486;2023-04-16T14:24:59;7.60;99.90
38458;DHT22;24239;48.058;10.486;2023-04-16T14:27:25;7.60;99.90
38458;DHT22;24239;48.058;10.486;2023-04-16T14:29:51;7.60;99.90
38458;DHT22;24239;48.058;10.486;2023-04-16T14:32:17;7.60;99.90
38458;DHT22;24239;48.058;10.486;2023-04-16T14:34:43;7.70;99.90
38458;DHT22;24239;48.058;10.486;2023-04-16T14:37:08;7.70;99.90
38458;DHT22;24239;48.058;10.486;2023-04-16T14:39:34;7.60;99.90
38458;DHT22;24239;48.058;10.486;2023-04-16T14:42:01;7.50;99.90
38458;DHT22;24239;48.058;10.486;2023-04-16T14:44:27;7.40;99.90
38458;DHT22;24239;48.058;10.486;2023-04-16T14:46:53;7.30;99.90
38458;DHT22;24239;48.058;10.486;2023-04-16T14:49:19;7.20;99.90
38458;DHT22;24239;48.058;10.486;2023-04-16T14:51:45;7.30;99.90
38458;DHT22;24239;48.058;10.486;2023-04-16T14:54:11;7.20;99.90
38458;DHT22;24239;48.058;10.486;2023-04-16T14:56:37;7.20;99.90
38458;DHT22;24239;48.058;10.486;2023-04-16T14:59:02;7.20;99.90
38458;DHT22;24239;48.058;10.486;2023-04-16T15:01:28;7.30;99.90
38458;DHT22;24239;48.058;10.486;2023-04-16T15:03:54;7.20;99.90
38458;DHT22;24239;48.058;10.486;2023-04-16T15:06:20;7.20;99.90
38458;DHT22;24239;48.058;10.486;2023-04-16T15:08:46;7.10;99.90
38458;DHT22;24239;48.058;10.486;2023-04-16T15:11:12;7.10;99.90
38458;DHT22;24239;48.058;10.486;2023-04-16T15:13:37;7.00;99.90
38458;DHT22;24239;48.058;10.486;2023-04-16T15:16:03;7.10;99.90
38458;DHT22;24239;48.058;10.486;2023-04-16T15:18:30;7.10;99.90
38458;DHT22;24239;48.058;10.486;2023-04-16T15:20:55;7.00;99.90
38458;DHT22;24239;48.058;10.486;2023-04-16T15:23:21;7.00;99.90
38458;DHT22;24239;48.058;10.486;2023-04-16T15:25:47;6.90;99.90
38458;DHT22;24239;48.058;10.486;2023-04-16T15:28:12;7.00;99.90
38458;DHT22;24239;48.058;10.486;2023-04-16T15:30:39;7.00;99.90